createdAt,value
2022-11-22T00:00:44.845Z,2.85
2022-11-22T00:01:44.829Z,2.85
2022-11-22T00:02:44.822Z,2.97
2022-11-22T00:03:44.817Z,3.03
2022-11-22T00:04:44.781Z,3.05
2022-11-22T00:05:44.819Z,3.03
2022-11-22T00:06:44.780Z,3.13
2022-11-22T00:07:44.811Z,3.05
2022-11-22T00:08:44.768Z,2.97
2022-11-22T00:09:44.729Z,2.98
2022-11-22T00:10:44.761Z,3.01
2022-11-22T00:11:44.704Z,3.01
2022-11-22T00:12:44.725Z,3.13
2022-11-22T00:13:44.719Z,3.05
2022-11-22T00:14:44.686Z,3.11
2022-11-22T00:15:44.666Z,3.13
2022-11-22T00:16:44.688Z,3.21
2022-11-22T00:17:44.650Z,3.19
2022-11-22T00:18:44.659Z,3.19
2022-11-22T00:19:44.619Z,3.21
2022-11-22T00:20:44.616Z,3.22
2022-11-22T00:21:44.632Z,3.25
2022-11-22T00:22:45.207Z,3.29
2022-11-22T00:23:44.615Z,3.22
2022-11-22T00:24:44.579Z,3.22
2022-11-22T00:25:44.568Z,3.22
2022-11-22T00:26:44.557Z,3.18
2022-11-22T00:27:44.563Z,3.10
2022-11-22T00:28:44.562Z,3.16
2022-11-22T00:29:44.538Z,3.21
2022-11-22T00:30:44.496Z,3.29
2022-11-22T00:31:44.542Z,3.23
2022-11-22T00:32:44.510Z,2.98
2022-11-22T00:33:44.502Z,2.89
2022-11-22T00:34:44.456Z,2.89
2022-11-22T00:35:44.461Z,2.97
2022-11-22T00:36:44.432Z,2.92
2022-11-22T00:37:44.488Z,2.80
2022-11-22T00:38:44.422Z,2.93
2022-11-22T00:39:44.406Z,2.80
2022-11-22T00:40:44.408Z,2.62
2022-11-22T00:41:44.407Z,2.75
2022-11-22T00:42:44.372Z,2.85
2022-11-22T00:43:44.377Z,2.86
2022-11-22T00:44:44.392Z,2.86
2022-11-22T00:45:44.336Z,3.01
2022-11-22T00:46:44.340Z,2.95
2022-11-22T00:47:44.342Z,3.04
2022-11-22T00:48:44.300Z,2.98
2022-11-22T00:49:44.291Z,3.05
2022-11-22T00:50:44.312Z,3.01
2022-11-22T00:51:44.315Z,2.95
2022-11-22T00:52:44.271Z,2.98
2022-11-22T00:53:44.246Z,3.05
2022-11-22T00:54:44.238Z,3.10
2022-11-22T00:55:44.242Z,3.25
2022-11-22T00:56:44.271Z,3.25
2022-11-22T00:57:44.252Z,3.21
2022-11-22T00:58:44.193Z,3.16
2022-11-22T00:59:44.183Z,3.28
2022-11-22T01:00:44.283Z,3.26
2022-11-22T01:01:44.265Z,3.05
2022-11-22T01:02:44.157Z,3.19
2022-11-22T01:03:44.159Z,3.21
2022-11-22T01:04:44.167Z,3.25
2022-11-22T01:05:44.117Z,3.29
2022-11-22T01:06:44.115Z,3.25
2022-11-22T01:07:44.178Z,3.21
2022-11-22T01:08:44.084Z,3.23
2022-11-22T01:09:44.119Z,3.21
2022-11-22T01:10:44.086Z,3.23
2022-11-22T01:11:44.096Z,3.23
2022-11-22T01:12:44.100Z,3.18
2022-11-22T01:13:44.045Z,3.25
2022-11-22T01:14:44.018Z,3.36
2022-11-22T01:15:44.033Z,3.25
2022-11-22T01:16:44.023Z,3.13
2022-11-22T01:17:43.986Z,3.07
2022-11-22T01:18:44.106Z,3.08
2022-11-22T01:19:43.976Z,3.14
2022-11-22T01:20:43.958Z,3.22
2022-11-22T01:21:43.946Z,3.26
2022-11-22T01:22:43.970Z,3.22
2022-11-22T01:23:43.923Z,3.34
2022-11-22T01:24:43.929Z,3.32
2022-11-22T01:25:43.926Z,3.31
2022-11-22T01:26:43.930Z,3.21
2022-11-22T01:27:43.877Z,3.34
2022-11-22T01:28:43.939Z,3.25
2022-11-22T01:29:43.857Z,3.23
2022-11-22T01:30:43.848Z,3.31
2022-11-22T01:31:43.833Z,3.32
2022-11-22T01:32:43.837Z,3.26
2022-11-22T01:33:43.818Z,3.37
2022-11-22T01:34:43.822Z,3.37
2022-11-22T01:35:43.803Z,3.31
2022-11-22T01:36:43.812Z,3.32
2022-11-22T01:37:43.798Z,3.25
2022-11-22T01:38:43.756Z,3.22
2022-11-22T01:39:43.746Z,3.25
2022-11-22T01:40:43.736Z,3.19
2022-11-22T01:41:43.768Z,3.11
2022-11-22T01:42:43.733Z,3.21
2022-11-22T01:43:43.725Z,3.22
2022-11-22T01:44:43.712Z,3.25
2022-11-22T01:45:43.685Z,3.22
2022-11-22T01:46:43.700Z,3.31
2022-11-22T01:47:43.670Z,3.31
2022-11-22T01:48:43.681Z,3.16
2022-11-22T01:49:43.682Z,3.05
2022-11-22T01:50:43.627Z,3.03
2022-11-22T01:51:43.621Z,2.90
2022-11-22T01:52:43.605Z,2.95
2022-11-22T01:53:43.609Z,2.89
2022-11-22T01:54:43.632Z,3.03
2022-11-22T01:55:43.603Z,3.07
2022-11-22T01:56:43.563Z,3.08
2022-11-22T01:57:43.561Z,3.16
2022-11-22T01:58:43.598Z,3.05
2022-11-22T01:59:43.535Z,3.14
2022-11-22T02:00:43.601Z,3.08
2022-11-22T02:01:43.639Z,3.13
2022-11-22T02:02:43.555Z,3.19
2022-11-22T02:03:43.513Z,3.05
2022-11-22T02:04:43.481Z,3.13
2022-11-22T02:05:43.472Z,3.08
2022-11-22T02:06:43.481Z,3.00
2022-11-22T02:07:43.516Z,3.01
2022-11-22T02:08:43.445Z,3.11
2022-11-22T02:09:43.429Z,3.18
2022-11-22T02:10:43.412Z,3.16
2022-11-22T02:11:43.410Z,3.10
2022-11-22T02:12:43.438Z,3.14
2022-11-22T02:13:43.381Z,3.19
2022-11-22T02:14:43.367Z,3.13
2022-11-22T02:15:43.382Z,3.23
2022-11-22T02:16:43.372Z,3.32
2022-11-22T02:17:43.383Z,3.31
2022-11-22T02:18:43.368Z,3.32
2022-11-22T02:19:44.079Z,3.36
2022-11-22T02:20:43.303Z,3.40
2022-11-22T02:21:43.308Z,3.41
2022-11-22T02:22:43.285Z,3.42
2022-11-22T02:23:43.293Z,3.37
2022-11-22T02:24:43.259Z,3.31
2022-11-22T02:25:43.261Z,3.16
2022-11-22T02:26:43.302Z,3.05
2022-11-22T02:27:43.229Z,3.08
2022-11-22T02:28:43.259Z,3.10
2022-11-22T02:29:43.235Z,3.13
2022-11-22T02:30:43.193Z,3.05
2022-11-22T02:31:43.197Z,3.05
2022-11-22T02:32:43.205Z,3.08
2022-11-22T02:33:43.199Z,3.11
2022-11-22T02:34:43.157Z,3.21
2022-11-22T02:35:43.174Z,3.21
2022-11-22T02:36:43.135Z,3.08
2022-11-22T02:37:43.119Z,3.23
2022-11-22T02:38:43.130Z,3.07
2022-11-22T02:39:43.099Z,3.13
2022-11-22T02:40:43.135Z,3.13
2022-11-22T02:41:43.105Z,3.21
2022-11-22T02:42:43.102Z,3.25
2022-11-22T02:43:43.053Z,3.29
2022-11-22T02:44:43.058Z,3.29
2022-11-22T02:45:43.044Z,3.40
2022-11-22T02:46:43.028Z,3.40
2022-11-22T02:47:43.041Z,3.29
2022-11-22T02:48:43.018Z,3.36
2022-11-22T02:49:42.995Z,3.37
2022-11-22T02:50:42.986Z,3.42
2022-11-22T02:51:43.007Z,3.37
2022-11-22T02:52:42.968Z,3.28
2022-11-22T02:53:42.987Z,3.31
2022-11-22T02:54:42.934Z,3.22
2022-11-22T02:55:42.924Z,3.34
2022-11-22T02:56:42.933Z,3.21
2022-11-22T02:57:42.915Z,3.26
2022-11-22T02:58:42.909Z,3.32
2022-11-22T02:59:42.907Z,3.31
2022-11-22T03:00:42.910Z,3.25
2022-11-22T03:01:42.862Z,3.32
2022-11-22T03:02:42.876Z,3.31
2022-11-22T03:03:42.886Z,3.36
2022-11-22T03:04:42.867Z,3.40
2022-11-22T03:05:42.852Z,3.42
2022-11-22T03:06:42.804Z,3.45
2022-11-22T03:07:42.889Z,3.42
2022-11-22T03:08:42.791Z,3.34
2022-11-22T03:09:42.795Z,3.37
2022-11-22T03:10:42.763Z,3.42
2022-11-22T03:11:42.795Z,3.45
2022-11-22T03:12:42.741Z,3.47
2022-11-22T03:13:42.728Z,3.48
2022-11-22T03:14:42.719Z,3.56
2022-11-22T03:15:42.753Z,3.58
2022-11-22T03:16:42.728Z,3.55
2022-11-22T03:17:42.685Z,3.41
2022-11-22T03:18:42.679Z,3.36
2022-11-22T03:19:42.664Z,3.42
2022-11-22T03:20:42.696Z,3.42
2022-11-22T03:21:42.675Z,3.50
2022-11-22T03:22:42.635Z,3.50
2022-11-22T03:23:42.628Z,3.41
2022-11-22T03:24:42.649Z,3.37
2022-11-22T03:25:42.597Z,3.37
2022-11-22T03:26:42.616Z,3.37
2022-11-22T03:27:42.595Z,3.23
2022-11-22T03:28:42.582Z,3.18
2022-11-22T03:29:42.555Z,3.22
2022-11-22T03:30:42.572Z,3.37
2022-11-22T03:31:42.558Z,3.40
2022-11-22T03:32:42.523Z,3.44
2022-11-22T03:33:42.533Z,3.36
2022-11-22T03:34:42.516Z,3.41
2022-11-22T03:35:42.521Z,3.37
2022-11-22T03:36:42.496Z,3.48
2022-11-22T03:37:42.502Z,3.48
2022-11-22T03:38:42.475Z,3.47
2022-11-22T03:39:42.452Z,3.48
2022-11-22T03:40:42.468Z,3.51
2022-11-22T03:41:42.428Z,3.51
2022-11-22T03:42:42.414Z,3.44
2022-11-22T03:43:42.429Z,3.47
2022-11-22T03:44:42.404Z,3.48
2022-11-22T03:45:42.394Z,3.50
2022-11-22T03:46:42.390Z,3.53
2022-11-22T03:47:42.396Z,3.47
2022-11-22T03:48:42.384Z,3.50
2022-11-22T03:49:42.353Z,3.47
2022-11-22T03:50:42.364Z,3.44
2022-11-22T03:51:42.328Z,3.47
2022-11-22T03:52:42.363Z,3.50
2022-11-22T03:53:42.303Z,3.60
2022-11-22T03:54:42.325Z,3.63
2022-11-22T03:55:42.285Z,3.55
2022-11-22T03:56:42.264Z,3.55
2022-11-22T03:57:42.304Z,3.68
2022-11-22T03:58:42.241Z,3.65
2022-11-22T03:59:42.274Z,3.58
2022-11-22T04:00:42.254Z,3.58
2022-11-22T04:01:42.246Z,3.53
2022-11-22T04:02:42.231Z,3.55
2022-11-22T04:03:42.202Z,3.48
2022-11-22T04:04:42.177Z,3.55
2022-11-22T04:05:42.200Z,3.47
2022-11-22T04:06:42.192Z,3.47
2022-11-22T04:07:42.210Z,3.56
2022-11-22T04:08:42.237Z,3.58
2022-11-22T04:09:42.146Z,3.59
2022-11-22T04:10:42.119Z,3.59
2022-11-22T04:11:42.566Z,3.50
2022-11-22T04:12:42.095Z,3.48
2022-11-22T04:13:42.081Z,3.50
2022-11-22T04:14:42.107Z,3.37
2022-11-22T04:15:42.087Z,3.44
2022-11-22T04:16:42.047Z,3.34
2022-11-22T04:17:42.051Z,3.36
2022-11-22T04:18:42.036Z,3.41
2022-11-22T04:19:42.018Z,3.47
2022-11-22T04:20:42.050Z,3.56
2022-11-22T04:21:42.013Z,3.70
2022-11-22T04:22:41.982Z,3.59
2022-11-22T04:23:41.983Z,3.58
2022-11-22T04:24:41.992Z,3.68
2022-11-22T04:25:41.965Z,3.74
2022-11-22T04:26:41.959Z,3.78
2022-11-22T04:27:41.940Z,3.73
2022-11-22T04:29:08.035Z,3.80
2022-11-22T04:29:41.966Z,3.76
2022-11-22T04:30:41.906Z,3.77
2022-11-22T04:31:41.881Z,3.77
2022-11-22T04:32:41.885Z,3.77
2022-11-22T04:33:41.886Z,3.74
2022-11-22T04:34:41.864Z,3.62
2022-11-22T04:35:41.857Z,3.63
2022-11-22T04:36:41.859Z,3.63
2022-11-22T04:37:41.824Z,3.66
2022-11-22T04:38:41.817Z,3.63
2022-11-22T04:39:41.826Z,3.69
2022-11-22T04:40:41.824Z,3.68
2022-11-22T04:41:41.829Z,3.62
2022-11-22T04:42:41.794Z,3.73
2022-11-22T04:43:41.759Z,3.80
2022-11-22T04:44:41.755Z,3.81
2022-11-22T04:45:41.764Z,3.73
2022-11-22T04:46:41.729Z,3.66
2022-11-22T04:47:45.000Z,3.66
2022-11-22T04:48:41.722Z,3.78
2022-11-22T04:49:41.707Z,3.80
2022-11-22T04:50:41.696Z,3.83
2022-11-22T04:51:41.668Z,3.76
2022-11-22T04:52:41.655Z,3.81
2022-11-22T04:53:41.706Z,3.81
2022-11-22T04:54:41.636Z,3.81
2022-11-22T04:55:41.622Z,3.91
2022-11-22T04:56:41.652Z,3.86
2022-11-22T04:57:41.636Z,3.95
2022-11-22T04:58:41.600Z,3.96
2022-11-22T04:59:41.600Z,3.96
2022-11-22T05:00:41.612Z,3.98
2022-11-22T05:01:41.622Z,3.95
2022-11-22T05:02:41.557Z,3.98
2022-11-22T05:03:41.560Z,4.06
2022-11-22T05:04:44.093Z,4.10
2022-11-22T05:05:41.540Z,4.02
2022-11-22T05:06:41.544Z,4.02
2022-11-22T05:07:41.584Z,4.08
2022-11-22T05:08:41.492Z,3.99
2022-11-22T05:09:41.472Z,4.13
2022-11-22T05:10:41.462Z,4.05
2022-11-22T05:11:41.526Z,3.98
2022-11-22T05:12:41.459Z,4.08
2022-11-22T05:13:41.531Z,3.95
2022-11-22T05:14:41.427Z,3.96
2022-11-22T05:15:41.424Z,4.08
2022-11-22T05:16:41.410Z,4.04
2022-11-22T05:17:41.422Z,3.98
2022-11-22T05:18:41.412Z,4.02
2022-11-22T05:19:44.917Z,4.02
2022-11-22T05:20:41.371Z,4.05
2022-11-22T05:21:41.343Z,3.98
2022-11-22T05:22:41.347Z,4.08
2022-11-22T05:23:41.362Z,3.94
2022-11-22T05:24:41.321Z,3.92
2022-11-22T05:25:41.322Z,3.84
2022-11-22T05:26:41.289Z,3.98
2022-11-22T05:27:41.283Z,4.06
2022-11-22T05:28:41.348Z,3.94
2022-11-22T05:29:41.270Z,3.99
2022-11-22T05:30:41.257Z,4.05
2022-11-22T05:31:41.250Z,3.95
2022-11-22T05:32:41.260Z,4.08
2022-11-22T05:33:41.251Z,4.05
2022-11-22T05:34:41.239Z,4.06
2022-11-22T05:35:41.211Z,4.10
2022-11-22T05:36:41.199Z,4.01
2022-11-22T05:37:41.185Z,3.88
2022-11-22T05:38:41.189Z,3.83
2022-11-22T05:39:41.149Z,3.83
2022-11-22T05:40:41.261Z,3.86
2022-11-22T05:41:41.146Z,3.69
2022-11-22T05:42:41.128Z,3.56
2022-11-22T05:43:41.127Z,3.58
2022-11-22T05:44:41.146Z,3.47
2022-11-22T05:45:41.087Z,3.53
2022-11-22T05:46:41.078Z,3.58
2022-11-22T05:47:41.063Z,3.69
2022-11-22T05:48:41.056Z,3.69
2022-11-22T05:49:41.063Z,3.73
2022-11-22T05:50:41.064Z,3.66
2022-11-22T05:51:41.059Z,3.65
2022-11-22T05:52:41.017Z,3.58
2022-11-22T05:53:41.001Z,3.60
2022-11-22T05:54:41.025Z,3.60
2022-11-22T05:55:40.985Z,3.66
2022-11-22T05:56:41.005Z,3.73
2022-11-22T05:57:40.955Z,3.86
2022-11-22T05:58:40.946Z,3.91
2022-11-22T05:59:44.149Z,3.78
2022-11-22T06:00:40.944Z,3.88
2022-11-22T06:01:41.046Z,3.87
2022-11-22T06:02:41.044Z,3.83
2022-11-22T06:03:41.420Z,3.84
2022-11-22T06:04:40.887Z,3.84
2022-11-22T06:05:40.869Z,3.91
2022-11-22T06:06:40.911Z,3.91
2022-11-22T06:07:40.934Z,3.91
2022-11-22T06:08:40.872Z,3.86
2022-11-22T06:09:40.878Z,3.91
2022-11-22T06:10:40.823Z,3.94
2022-11-22T06:11:40.804Z,3.98
2022-11-22T06:12:40.800Z,3.94
2022-11-22T06:13:40.803Z,3.92
2022-11-22T06:14:43.485Z,3.98
2022-11-22T06:15:40.785Z,4.01
2022-11-22T06:16:40.776Z,3.99
2022-11-22T06:17:40.742Z,3.92
2022-11-22T06:18:40.755Z,3.91
2022-11-22T06:19:40.735Z,3.91
2022-11-22T06:20:40.751Z,3.92
2022-11-22T06:21:40.702Z,3.91
2022-11-22T06:22:40.724Z,3.95
2022-11-22T06:23:40.674Z,3.91
2022-11-22T06:24:40.675Z,3.91
2022-11-22T06:25:40.675Z,3.87
2022-11-22T06:26:40.653Z,3.84
2022-11-22T06:27:40.634Z,3.91
2022-11-22T06:28:40.648Z,4.02
2022-11-22T06:29:40.663Z,4.01
2022-11-22T06:30:40.608Z,3.94
2022-11-22T06:31:40.617Z,3.92
2022-11-22T06:32:40.597Z,3.88
2022-11-22T06:33:40.630Z,3.87
2022-11-22T06:34:40.578Z,3.81
2022-11-22T06:35:40.585Z,3.83
2022-11-22T06:36:40.551Z,3.87
2022-11-22T06:37:40.526Z,3.88
2022-11-22T06:38:40.525Z,3.87
2022-11-22T06:39:40.517Z,3.73
2022-11-22T06:40:40.521Z,3.77
2022-11-22T06:41:40.487Z,3.86
2022-11-22T06:42:40.483Z,3.76
2022-11-22T06:43:46.787Z,3.66
2022-11-22T06:44:40.517Z,3.66
2022-11-22T06:45:40.457Z,3.66
2022-11-22T06:46:40.440Z,3.77
2022-11-22T06:47:40.421Z,3.69
2022-11-22T06:48:40.448Z,3.68
2022-11-22T06:49:40.439Z,3.80
2022-11-22T06:50:40.388Z,3.83
2022-11-22T06:51:40.413Z,3.86
2022-11-22T06:52:40.362Z,3.73
2022-11-22T06:53:47.283Z,3.73
2022-11-22T06:54:40.357Z,3.76
2022-11-22T06:56:01.163Z,3.84
2022-11-22T06:56:41.366Z,3.88
2022-11-22T06:57:40.312Z,3.91
2022-11-22T06:58:40.298Z,3.69
2022-11-22T06:59:40.296Z,3.68
2022-11-22T07:00:40.302Z,3.65
2022-11-22T07:01:40.343Z,3.80
2022-11-22T07:02:40.325Z,3.73
2022-11-22T07:03:40.269Z,3.69
2022-11-22T07:04:56.033Z,3.63
2022-11-22T07:05:41.225Z,3.58
2022-11-22T07:06:40.227Z,3.56
2022-11-22T07:07:40.286Z,3.66
2022-11-22T07:08:40.216Z,3.55
2022-11-22T07:09:40.213Z,3.56
2022-11-22T07:10:40.174Z,3.48
2022-11-22T07:11:40.170Z,3.55
2022-11-22T07:12:40.180Z,3.41
2022-11-22T07:13:40.140Z,3.44
2022-11-22T07:14:40.192Z,3.40
2022-11-22T07:15:40.145Z,3.36
2022-11-22T07:16:40.108Z,3.36
2022-11-22T07:17:40.110Z,3.19
2022-11-22T07:18:40.101Z,3.18
2022-11-22T07:19:40.074Z,3.31
2022-11-22T07:20:40.109Z,3.36
2022-11-22T07:21:40.092Z,3.28
2022-11-22T07:22:40.044Z,3.28
2022-11-22T07:23:40.063Z,3.31
2022-11-22T07:24:40.034Z,3.34
2022-11-22T07:25:40.069Z,3.40
2022-11-22T07:26:40.048Z,3.45
2022-11-22T07:27:40.037Z,3.58
2022-11-22T07:28:40.023Z,3.63
2022-11-22T07:29:39.996Z,3.77
2022-11-22T07:30:43.981Z,3.81
2022-11-22T07:31:40.046Z,3.74
2022-11-22T07:32:39.931Z,3.69
2022-11-22T07:33:39.921Z,3.68
2022-11-22T07:34:39.951Z,3.60
2022-11-22T07:35:39.903Z,3.73
2022-11-22T07:36:39.957Z,3.69
2022-11-22T07:37:39.879Z,3.68
2022-11-22T07:38:39.871Z,3.69
2022-11-22T07:39:39.893Z,3.86
2022-11-22T07:40:39.882Z,3.87
2022-11-22T07:41:39.842Z,3.98
2022-11-22T07:42:39.824Z,3.87
2022-11-22T07:43:39.826Z,3.80
2022-11-22T07:44:39.912Z,3.81
2022-11-22T07:45:39.801Z,3.74
2022-11-22T07:46:39.925Z,3.86
2022-11-22T07:47:39.777Z,3.92
2022-11-22T07:48:39.760Z,3.98
2022-11-22T07:49:39.855Z,3.91
2022-11-22T07:50:39.740Z,3.91
2022-11-22T07:51:39.762Z,3.95
2022-11-22T07:52:39.767Z,3.94
2022-11-22T07:53:39.718Z,3.87
2022-11-22T07:54:39.779Z,3.96
2022-11-22T07:55:39.735Z,4.10
2022-11-22T07:56:39.691Z,4.12
2022-11-22T07:57:39.662Z,4.01
2022-11-22T07:58:39.658Z,4.04
2022-11-22T07:59:39.668Z,3.98
2022-11-22T08:00:39.692Z,4.01
2022-11-22T08:01:39.666Z,4.04
2022-11-22T08:02:39.619Z,4.06
2022-11-22T08:03:39.602Z,4.20
2022-11-22T08:04:39.629Z,4.10
2022-11-22T08:05:39.592Z,4.16
2022-11-22T08:06:39.603Z,4.02
2022-11-22T08:07:39.690Z,4.16
2022-11-22T08:08:39.676Z,4.19
2022-11-22T08:09:39.575Z,4.32
2022-11-22T08:10:39.532Z,4.31
2022-11-22T08:11:39.533Z,4.40
2022-11-22T08:12:39.546Z,4.35
2022-11-22T08:13:39.513Z,4.40
2022-11-22T08:14:39.512Z,4.48
2022-11-22T08:15:39.498Z,4.50
2022-11-22T08:16:39.459Z,4.48
2022-11-22T08:17:39.464Z,4.52
2022-11-22T08:18:39.471Z,4.62
2022-11-22T08:19:39.432Z,4.63
2022-11-22T08:20:39.435Z,4.66
2022-11-22T08:21:39.473Z,4.59
2022-11-22T08:22:39.396Z,4.48
2022-11-22T08:23:39.456Z,4.42
2022-11-22T08:24:39.493Z,4.42
2022-11-22T08:25:39.361Z,4.50
2022-11-22T08:26:39.374Z,4.70
2022-11-22T08:27:39.425Z,4.67
2022-11-22T08:28:39.330Z,4.66
2022-11-22T08:29:39.317Z,4.75
2022-11-22T08:30:39.305Z,4.74
2022-11-22T08:31:39.329Z,4.89
2022-11-22T08:32:39.423Z,4.89
2022-11-22T08:33:39.274Z,5.04
2022-11-22T08:34:44.045Z,4.94
2022-11-22T08:35:39.252Z,5.08
2022-11-22T08:36:39.295Z,5.07
2022-11-22T08:37:39.248Z,5.07
2022-11-22T08:38:39.256Z,5.07
2022-11-22T08:39:39.309Z,4.93
2022-11-22T08:40:41.191Z,4.99
2022-11-22T08:41:39.223Z,4.92
2022-11-22T08:42:39.178Z,4.96
2022-11-22T08:43:39.235Z,4.84
2022-11-22T08:44:39.239Z,4.84
2022-11-22T08:45:39.187Z,4.92
2022-11-22T08:46:39.144Z,4.99
2022-11-22T08:47:39.121Z,5.00
2022-11-22T08:48:39.176Z,5.11
2022-11-22T08:49:39.107Z,5.05
2022-11-22T08:50:39.179Z,5.11
2022-11-22T08:51:39.084Z,5.12
2022-11-22T08:52:39.097Z,5.20
2022-11-22T08:53:39.087Z,5.26
2022-11-22T08:54:39.053Z,5.30
2022-11-22T08:55:39.045Z,5.35
2022-11-22T08:56:39.189Z,5.30
2022-11-22T08:57:39.040Z,5.41
2022-11-22T08:58:39.004Z,5.46
2022-11-22T08:59:39.150Z,5.51
2022-11-22T09:00:39.069Z,5.33
2022-11-22T09:01:39.010Z,5.43
2022-11-22T09:02:39.001Z,5.36
2022-11-22T09:03:38.972Z,5.41
2022-11-22T09:04:38.931Z,5.38
2022-11-22T09:08:43.013Z,5.54
2022-11-22T09:09:38.884Z,5.59
2022-11-22T09:10:38.920Z,5.62
2022-11-22T09:11:38.859Z,5.53
2022-11-22T09:12:38.967Z,5.57
2022-11-22T09:13:38.837Z,5.59
2022-11-22T09:14:38.831Z,5.64
2022-11-22T09:15:38.822Z,5.66
2022-11-22T09:16:38.849Z,5.69
2022-11-22T09:17:38.789Z,5.69
2022-11-22T09:18:38.786Z,5.79
2022-11-22T09:19:39.750Z,5.75
2022-11-22T09:20:38.765Z,5.64
2022-11-22T09:21:38.745Z,5.68
2022-11-22T09:22:38.771Z,5.69
2022-11-22T09:23:38.759Z,5.73
2022-11-22T09:24:38.721Z,5.84
2022-11-22T09:25:38.720Z,5.82
2022-11-22T09:26:38.701Z,5.87
2022-11-22T09:27:38.709Z,5.87
2022-11-22T09:28:38.811Z,5.90
2022-11-22T09:29:38.691Z,5.97
2022-11-22T09:30:38.698Z,6.09
2022-11-22T09:31:38.652Z,6.09
2022-11-22T09:32:38.628Z,6.17
2022-11-22T09:33:38.643Z,6.17
2022-11-22T09:34:38.600Z,6.24
2022-11-22T09:35:38.649Z,6.24
2022-11-22T09:36:38.595Z,6.24
2022-11-22T09:37:38.572Z,6.12
2022-11-22T09:38:38.562Z,6.24
2022-11-22T09:39:41.455Z,6.26
2022-11-22T09:40:38.580Z,6.31
2022-11-22T09:41:38.527Z,6.33
2022-11-22T09:42:38.513Z,6.38
2022-11-22T09:43:38.526Z,6.36
2022-11-22T09:44:38.611Z,6.38
2022-11-22T09:45:38.525Z,6.39
2022-11-22T09:46:38.469Z,6.41
2022-11-22T09:47:38.826Z,6.38
2022-11-22T09:48:38.456Z,6.41
2022-11-22T09:49:38.447Z,6.42
2022-11-22T09:50:38.464Z,6.38
2022-11-22T09:51:38.444Z,6.49
2022-11-22T09:52:38.402Z,6.48
2022-11-22T09:53:38.441Z,6.44
2022-11-22T09:54:38.383Z,6.51
2022-11-22T09:55:38.386Z,6.60
2022-11-22T09:56:38.394Z,6.59
2022-11-22T09:57:38.351Z,6.66
2022-11-22T09:58:38.336Z,6.66
2022-11-22T09:59:38.348Z,6.60
2022-11-22T10:00:38.571Z,6.67
2022-11-22T10:01:38.340Z,6.62
2022-11-22T10:02:58.749Z,6.62
2022-11-22T10:03:38.325Z,6.72
2022-11-22T10:04:38.346Z,6.72
2022-11-22T10:05:38.288Z,6.67
2022-11-22T10:06:38.264Z,6.79
2022-11-22T10:07:38.307Z,6.81
2022-11-22T10:08:38.260Z,6.69
2022-11-22T10:09:38.225Z,6.79
2022-11-22T10:10:38.317Z,6.81
2022-11-22T10:11:38.200Z,6.79
2022-11-22T10:12:38.220Z,6.81
2022-11-22T10:13:38.187Z,6.95
2022-11-22T10:14:38.164Z,6.95
2022-11-22T10:15:38.203Z,6.95
2022-11-22T10:16:38.165Z,6.97
2022-11-22T10:17:38.145Z,6.93
2022-11-22T10:18:38.131Z,7.03
2022-11-22T10:19:38.134Z,6.82
2022-11-22T10:20:38.094Z,6.92
2022-11-22T10:21:38.087Z,7.02
2022-11-22T10:22:38.086Z,6.82
2022-11-22T10:23:38.082Z,6.84
2022-11-22T10:24:38.072Z,6.84
2022-11-22T10:25:38.072Z,6.62
2022-11-22T10:26:38.035Z,6.81
2022-11-22T10:27:38.088Z,6.77
2022-11-22T10:28:38.015Z,6.78
2022-11-22T10:29:38.048Z,6.87
2022-11-22T10:30:38.010Z,6.85
2022-11-22T10:31:37.975Z,6.81
2022-11-22T10:32:38.080Z,6.81
2022-11-22T10:33:43.990Z,6.88
2022-11-22T10:34:37.946Z,6.87
2022-11-22T10:35:37.940Z,6.82
2022-11-22T10:36:37.971Z,6.85
2022-11-22T10:37:37.906Z,6.97
2022-11-22T10:38:37.900Z,7.03
2022-11-22T10:39:38.268Z,7.03
2022-11-22T10:40:37.880Z,7.02
2022-11-22T10:41:37.877Z,7.05
2022-11-22T10:42:37.876Z,7.06
2022-11-22T10:43:37.868Z,7.17
2022-11-22T10:44:37.842Z,7.17
2022-11-22T10:45:38.317Z,7.23
2022-11-22T10:46:37.811Z,7.23
2022-11-22T10:47:37.816Z,7.15
2022-11-22T10:48:37.906Z,7.23
2022-11-22T10:49:37.825Z,7.28
2022-11-22T10:50:37.781Z,7.18
2022-11-22T10:51:37.767Z,7.17
2022-11-22T10:52:37.752Z,7.20
2022-11-22T10:53:37.749Z,7.11
2022-11-22T10:54:37.740Z,7.02
2022-11-22T10:55:37.750Z,7.13
2022-11-22T10:56:37.722Z,7.14
2022-11-22T10:57:37.709Z,7.15
2022-11-22T10:58:37.680Z,7.23
2022-11-22T10:59:37.677Z,7.28
2022-11-22T11:00:37.684Z,7.25
2022-11-22T11:01:37.686Z,7.29
2022-11-22T11:02:37.687Z,7.36
2022-11-22T11:03:37.653Z,7.45
2022-11-22T11:04:37.730Z,7.45
2022-11-22T11:05:42.071Z,7.47
2022-11-22T11:07:04.633Z,7.50
2022-11-22T11:07:38.678Z,7.48
2022-11-22T11:09:02.587Z,7.61
2022-11-22T11:10:37.747Z,7.60
2022-11-22T11:11:37.553Z,7.48
2022-11-22T11:12:37.528Z,7.57
2022-11-22T11:13:37.557Z,7.54
2022-11-22T11:14:37.505Z,7.53
2022-11-22T11:15:37.528Z,7.70
2022-11-22T11:16:37.504Z,7.67
2022-11-22T11:17:37.503Z,7.63
2022-11-22T11:18:37.468Z,7.56
2022-11-22T11:19:37.474Z,7.67
2022-11-22T11:20:37.577Z,7.63
2022-11-22T11:21:37.481Z,7.66
2022-11-22T11:23:12.603Z,7.70
2022-11-22T11:23:38.459Z,7.69
2022-11-22T11:24:37.458Z,7.73
2022-11-22T11:25:38.215Z,7.77
2022-11-22T11:26:39.645Z,7.77
2022-11-22T11:27:39.763Z,7.82
2022-11-22T11:28:37.373Z,7.75
2022-11-22T11:29:38.108Z,7.73
2022-11-22T11:30:37.367Z,7.75
2022-11-22T11:31:37.315Z,7.80
2022-11-22T11:32:37.317Z,7.75
2022-11-22T11:33:37.301Z,7.87
2022-11-22T11:34:37.306Z,7.76
2022-11-22T11:35:37.304Z,7.73
2022-11-22T11:36:37.398Z,7.85
2022-11-22T11:37:37.257Z,7.83
2022-11-22T11:38:37.267Z,7.85
2022-11-22T11:39:40.631Z,7.85
2022-11-22T11:40:37.233Z,7.82
2022-11-22T11:41:43.154Z,7.75
2022-11-22T11:42:39.450Z,7.83
2022-11-22T11:43:41.177Z,7.80
2022-11-22T11:44:37.237Z,7.70
2022-11-22T11:45:37.165Z,7.83
2022-11-22T11:46:37.170Z,7.85
2022-11-22T11:47:37.162Z,7.85
2022-11-22T11:48:37.177Z,7.87
2022-11-22T11:49:37.125Z,7.87
2022-11-22T11:50:37.119Z,7.85
2022-11-22T11:51:37.134Z,7.80
2022-11-22T11:52:37.232Z,7.83
2022-11-22T11:53:37.081Z,7.88
2022-11-22T11:54:37.088Z,7.87
2022-11-22T11:55:37.060Z,7.90
2022-11-22T11:56:37.071Z,7.97
2022-11-22T11:57:37.050Z,7.90
2022-11-22T11:58:37.044Z,7.95
2022-11-22T11:59:37.019Z,7.97
2022-11-22T12:00:37.013Z,7.95
2022-11-22T12:01:38.976Z,7.95
2022-11-22T12:02:37.054Z,7.98
2022-11-22T12:03:36.976Z,8.00
2022-11-22T12:04:36.968Z,7.94
2022-11-22T12:05:36.958Z,8.05
2022-11-22T12:06:36.939Z,8.03
2022-11-22T12:07:37.007Z,8.10
2022-11-22T12:08:37.058Z,8.05
2022-11-22T12:09:36.915Z,8.09
2022-11-22T12:10:36.907Z,8.13
2022-11-22T12:11:36.887Z,8.10
2022-11-22T12:12:36.919Z,8.13
2022-11-22T12:13:57.750Z,8.15
2022-11-22T12:15:09.131Z,8.18
2022-11-22T12:15:36.852Z,8.10
2022-11-22T12:16:36.901Z,8.23
2022-11-22T12:17:36.821Z,8.18
2022-11-22T12:18:36.814Z,8.18
2022-11-22T12:19:36.867Z,8.28
2022-11-22T12:20:36.835Z,8.20
2022-11-22T12:21:36.799Z,8.27
2022-11-22T12:22:49.454Z,8.15
2022-11-22T12:23:36.758Z,8.19
2022-11-22T12:24:57.257Z,8.27
2022-11-22T12:25:38.265Z,8.26
2022-11-22T12:26:36.733Z,8.28
2022-11-22T12:27:36.742Z,8.28
2022-11-22T12:28:36.703Z,8.28
2022-11-22T12:29:36.694Z,8.27
2022-11-22T12:30:38.436Z,8.30
2022-11-22T12:31:36.686Z,8.31
2022-11-22T12:32:36.662Z,8.33
2022-11-22T12:33:36.679Z,8.33
2022-11-22T12:34:36.637Z,8.30
2022-11-22T12:35:36.632Z,8.36
2022-11-22T12:36:36.649Z,8.36
2022-11-22T12:37:36.638Z,8.31
2022-11-22T12:38:36.595Z,8.33
2022-11-22T12:39:36.592Z,8.34
2022-11-22T12:40:36.692Z,8.38
2022-11-22T12:41:36.602Z,8.36
2022-11-22T12:42:36.684Z,8.42
2022-11-22T12:43:36.545Z,8.38
2022-11-22T12:44:36.538Z,8.37
2022-11-22T12:45:36.547Z,8.41
2022-11-22T12:46:39.567Z,8.36
2022-11-22T12:47:36.504Z,8.44
2022-11-22T12:48:36.528Z,8.45
2022-11-22T12:49:36.489Z,8.46
2022-11-22T12:50:36.467Z,8.44
2022-11-22T12:51:36.474Z,8.38
2022-11-22T12:52:36.448Z,8.44
2022-11-22T12:53:36.472Z,8.46
2022-11-22T12:54:36.456Z,8.44
2022-11-22T12:55:36.414Z,8.33
2022-11-22T12:56:36.522Z,8.37
2022-11-22T12:57:36.398Z,8.44
2022-11-22T12:58:36.380Z,8.42
2022-11-22T12:59:36.385Z,8.37
2022-11-22T13:00:36.404Z,8.36
2022-11-22T13:01:36.433Z,8.38
2022-11-22T13:02:36.362Z,8.41
2022-11-22T13:03:36.335Z,8.30
2022-11-22T13:04:36.337Z,8.33
2022-11-22T13:05:36.329Z,8.36
2022-11-22T13:06:36.325Z,8.41
2022-11-22T13:07:36.384Z,8.31
2022-11-22T13:08:36.281Z,8.42
2022-11-22T13:09:36.266Z,8.41
2022-11-22T13:10:36.295Z,8.42
2022-11-22T13:11:36.239Z,8.44
2022-11-22T13:12:36.379Z,8.41
2022-11-22T13:13:36.218Z,8.51
2022-11-22T13:14:36.217Z,8.46
2022-11-22T13:15:36.222Z,8.44
2022-11-22T13:16:36.184Z,8.46
2022-11-22T13:17:36.206Z,8.45
2022-11-22T13:18:36.209Z,8.46
2022-11-22T13:19:36.217Z,8.51
2022-11-22T13:20:42.507Z,8.56
2022-11-22T13:21:36.145Z,8.49
2022-11-22T13:22:36.181Z,8.45